createdAt,value
2022-11-18T00:00:00.316Z,990
2022-11-18T00:05:00.175Z,990
2022-11-18T00:10:00.268Z,990
2022-11-18T00:15:00.156Z,990
2022-11-18T00:20:00.299Z,990
2022-11-18T00:25:00.203Z,990
2022-11-18T00:30:00.272Z,990
2022-11-18T00:35:00.297Z,990
2022-11-18T00:40:00.244Z,990
2022-11-18T00:45:00.269Z,990
2022-11-18T00:50:00.212Z,990
2022-11-18T00:55:00.266Z,990
2022-11-18T01:00:00.300Z,990
2022-11-18T01:05:00.202Z,990
2022-11-18T01:10:00.256Z,990
2022-11-18T01:15:00.198Z,990
2022-11-18T01:20:00.270Z,990
2022-11-18T01:25:00.181Z,990
2022-11-18T01:30:00.242Z,990
2022-11-18T01:35:00.154Z,990
2022-11-18T01:40:00.262Z,990
2022-11-18T01:45:00.261Z,990
2022-11-18T01:50:00.219Z,990
2022-11-18T01:55:00.232Z,991
2022-11-18T02:00:00.346Z,990
2022-11-18T02:05:00.260Z,990
2022-11-18T02:10:00.272Z,990
2022-11-18T02:15:00.268Z,990
2022-11-18T02:20:00.283Z,991
2022-11-18T02:25:00.265Z,991
2022-11-18T02:30:00.236Z,991
2022-11-18T02:35:00.234Z,991
2022-11-18T02:40:00.308Z,991
2022-11-18T02:45:00.286Z,991
2022-11-18T02:50:00.183Z,991
2022-11-18T02:55:00.276Z,991
2022-11-18T03:00:00.271Z,991
2022-11-18T03:05:00.259Z,991
2022-11-18T03:10:00.231Z,991
2022-11-18T03:15:00.283Z,991
2022-11-18T03:20:00.317Z,991
2022-11-18T03:25:00.281Z,991
2022-11-18T03:30:00.233Z,991
2022-11-18T03:35:00.289Z,991
2022-11-18T03:40:00.228Z,991
2022-11-18T03:45:00.169Z,991
2022-11-18T03:50:00.189Z,991
2022-11-18T03:55:00.207Z,991
2022-11-18T04:00:00.283Z,991
2022-11-18T04:05:00.264Z,991
2022-11-18T04:10:00.272Z,991
2022-11-18T04:15:00.661Z,992
2022-11-18T04:20:00.283Z,992
2022-11-18T04:25:00.220Z,992
2022-11-18T04:30:00.249Z,992
2022-11-18T04:35:00.253Z,992
2022-11-18T04:40:00.304Z,992
2022-11-18T04:45:00.292Z,992
2022-11-18T04:50:00.314Z,992
2022-11-18T04:55:00.248Z,992
2022-11-18T05:00:00.409Z,992
2022-11-18T05:05:00.283Z,992
2022-11-18T05:10:00.260Z,992
2022-11-18T05:15:00.312Z,992
2022-11-18T05:20:00.311Z,992
2022-11-18T05:25:00.278Z,992
2022-11-18T05:30:00.288Z,992
2022-11-18T05:35:00.287Z,992
2022-11-18T05:40:00.329Z,992
2022-11-18T05:45:00.317Z,992
2022-11-18T05:50:00.247Z,993
2022-11-18T05:55:00.236Z,993
2022-11-18T06:00:00.217Z,993
2022-11-18T06:05:00.286Z,993
2022-11-18T06:10:04.989Z,993
2022-11-18T06:15:00.229Z,993
2022-11-18T06:20:00.250Z,993
2022-11-18T06:25:00.296Z,993
2022-11-18T06:30:00.282Z,993
2022-11-18T06:35:00.266Z,993
2022-11-18T06:40:00.348Z,993
2022-11-18T06:45:00.399Z,993
2022-11-18T06:50:00.221Z,993
2022-11-18T06:55:00.233Z,993
2022-11-18T07:00:02.309Z,993
2022-11-18T07:05:00.319Z,993
2022-11-18T07:10:00.248Z,993
2022-11-18T07:15:00.307Z,994
2022-11-18T07:20:00.316Z,994
2022-11-18T07:25:00.277Z,994
2022-11-18T07:30:00.332Z,994
2022-11-18T07:35:00.235Z,994
2022-11-18T07:40:00.310Z,994
2022-11-18T07:45:00.298Z,994
2022-11-18T07:50:00.203Z,994
2022-11-18T07:55:00.249Z,994
2022-11-18T08:00:00.326Z,994
2022-11-18T08:05:00.360Z,994
2022-11-18T08:10:00.210Z,994
2022-11-18T08:15:00.333Z,994
2022-11-18T08:20:00.297Z,994
2022-11-18T08:25:00.238Z,995
2022-11-18T08:30:00.272Z,995
2022-11-18T08:35:00.221Z,995
2022-11-18T08:40:00.217Z,995
2022-11-18T08:45:00.219Z,995
2022-11-18T08:50:00.413Z,995
2022-11-18T08:55:00.344Z,995
2022-11-18T09:00:00.586Z,995
2022-11-18T09:05:00.220Z,995
2022-11-18T09:10:00.430Z,995
2022-11-18T09:15:14.858Z,995
2022-11-18T09:20:01.184Z,995
2022-11-18T09:25:00.234Z,995
2022-11-18T09:30:00.436Z,995
2022-11-18T09:35:00.224Z,995
2022-11-18T09:40:00.445Z,995
2022-11-18T09:45:00.232Z,995
2022-11-18T09:50:06.594Z,995
2022-11-18T09:55:00.288Z,995
2022-11-18T10:00:00.292Z,995
2022-11-18T10:05:00.280Z,995
2022-11-18T10:10:00.215Z,996
2022-11-18T10:15:00.294Z,995
2022-11-18T10:20:00.264Z,996
2022-11-18T10:25:00.280Z,996
2022-11-18T10:30:00.270Z,996
2022-11-18T10:35:00.272Z,996
2022-11-18T10:40:00.297Z,996
2022-11-18T10:45:00.295Z,996
2022-11-18T10:50:00.278Z,996
2022-11-18T10:55:00.223Z,996
2022-11-18T11:00:00.359Z,996
2022-11-18T11:05:00.289Z,996
2022-11-18T11:10:00.241Z,996
2022-11-18T11:15:00.277Z,996
2022-11-18T11:20:00.282Z,996
2022-11-18T11:25:00.239Z,996
2022-11-18T11:30:00.296Z,996
2022-11-18T11:35:00.284Z,996
2022-11-18T11:40:00.320Z,996
2022-11-18T11:45:00.271Z,996
2022-11-18T11:50:00.300Z,996
2022-11-18T11:55:00.217Z,996
2022-11-18T12:00:00.344Z,996
2022-11-18T12:05:00.249Z,996
2022-11-18T12:10:00.271Z,996
2022-11-18T12:15:00.235Z,996
2022-11-18T12:20:00.295Z,996
2022-11-18T12:25:00.267Z,996
2022-11-18T12:30:00.332Z,996
2022-11-18T12:35:00.251Z,996
2022-11-18T12:40:00.385Z,996
2022-11-18T12:45:00.267Z,996
2022-11-18T12:50:00.203Z,996
2022-11-18T12:55:00.226Z,996
2022-11-18T13:00:00.372Z,996
2022-11-18T13:05:00.229Z,996
2022-11-18T13:10:00.257Z,996
2022-11-18T13:15:00.266Z,996
2022-11-18T13:20:00.336Z,996
2022-11-18T13:25:00.298Z,996
2022-11-18T13:30:00.257Z,996
2022-11-18T13:35:00.281Z,996
2022-11-18T13:40:00.274Z,996
2022-11-18T13:45:00.237Z,997
2022-11-18T13:50:00.274Z,996
2022-11-18T13:55:00.330Z,996
2022-11-18T14:00:00.355Z,996
2022-11-18T14:05:00.294Z,997
2022-11-18T14:10:00.235Z,997
2022-11-18T14:15:00.280Z,996
2022-11-18T14:20:00.250Z,997
2022-11-18T14:25:00.317Z,997
2022-11-18T14:30:00.356Z,997
2022-11-18T14:35:00.277Z,997
2022-11-18T14:40:00.368Z,997
2022-11-18T14:45:00.248Z,997
2022-11-18T14:50:00.295Z,997
2022-11-18T14:55:00.210Z,997
2022-11-18T15:00:00.323Z,997
2022-11-18T15:05:00.310Z,997
2022-11-18T15:10:00.250Z,997
2022-11-18T15:15:00.299Z,997
2022-11-18T15:20:00.280Z,997
2022-11-18T15:25:00.237Z,997
2022-11-18T15:30:01.804Z,997
2022-11-18T15:35:00.232Z,997
2022-11-18T15:40:00.284Z,997
2022-11-18T15:45:00.273Z,997
2022-11-18T15:50:00.298Z,997
2022-11-18T15:55:02.940Z,998
2022-11-18T16:00:00.310Z,998
2022-11-18T16:05:00.284Z,998
2022-11-18T16:10:00.206Z,998
2022-11-18T16:15:00.232Z,998
2022-11-18T16:20:00.350Z,998
2022-11-18T16:25:00.282Z,998
2022-11-18T16:30:00.239Z,998
2022-11-18T16:35:01.620Z,998
2022-11-18T16:40:00.386Z,998
2022-11-18T16:45:00.217Z,998
2022-11-18T16:50:00.385Z,998
2022-11-18T16:55:00.296Z,998
2022-11-18T17:00:00.501Z,999
2022-11-18T17:05:00.253Z,999
2022-11-18T17:10:00.310Z,999
2022-11-18T17:15:00.265Z,999
2022-11-18T17:20:00.265Z,999
2022-11-18T17:25:05.169Z,999
2022-11-18T17:30:00.310Z,999
2022-11-18T17:35:00.229Z,999
2022-11-18T17:40:00.354Z,999
2022-11-18T17:45:00.259Z,999
2022-11-18T17:50:00.217Z,999
2022-11-18T17:55:00.279Z,999
2022-11-18T18:00:00.309Z,999
2022-11-18T18:05:00.301Z,999
2022-11-18T18:10:00.280Z,999
2022-11-18T18:15:00.260Z,999
2022-11-18T18:20:00.256Z,999
2022-11-18T18:25:00.221Z,999
2022-11-18T18:30:00.258Z,999
2022-11-18T18:35:00.275Z,999
2022-11-18T18:40:00.306Z,999
2022-11-18T18:45:00.272Z,999
2022-11-18T18:50:00.325Z,999
2022-11-18T18:55:00.283Z,999
2022-11-18T19:00:00.355Z,999
2022-11-18T19:05:00.295Z,999
2022-11-18T19:10:00.296Z,999
2022-11-18T19:15:00.395Z,1000
2022-11-18T19:20:00.630Z,1000
2022-11-18T19:25:00.884Z,1000
2022-11-18T19:30:00.323Z,1000
2022-11-18T19:35:00.297Z,1000
2022-11-18T19:40:03.027Z,1000
2022-11-18T19:45:00.276Z,1000
2022-11-18T19:50:05.217Z,1000
2022-11-18T19:55:00.301Z,1000
2022-11-18T20:00:00.374Z,1000
2022-11-18T20:05:00.286Z,1000
2022-11-18T20:10:00.303Z,1000
2022-11-18T20:15:00.285Z,1000
2022-11-18T20:20:00.265Z,1000
2022-11-18T20:25:00.278Z,1000
2022-11-18T20:30:00.318Z,1000
2022-11-18T20:35:00.279Z,1000
2022-11-18T20:40:00.296Z,1000
2022-11-18T20:45:00.252Z,1000
2022-11-18T20:50:00.226Z,1000
2022-11-18T20:55:05.403Z,1001
2022-11-18T21:00:00.337Z,1001
2022-11-18T21:05:00.243Z,1001
2022-11-18T21:10:00.271Z,1001
2022-11-18T21:15:00.231Z,1001
2022-11-18T21:20:00.266Z,1001
2022-11-18T21:25:00.259Z,1001
2022-11-18T21:30:00.277Z,1001
2022-11-18T21:35:00.285Z,1001
2022-11-18T21:40:00.312Z,1001
2022-11-18T21:45:00.242Z,1001
2022-11-18T21:50:00.204Z,1001
2022-11-18T21:55:00.273Z,1001
2022-11-18T22:00:00.338Z,1001
2022-11-18T22:05:00.230Z,1001
2022-11-18T22:10:00.222Z,1001
2022-11-18T22:15:00.260Z,1001
2022-11-18T22:20:00.264Z,1001
2022-11-18T22:25:00.284Z,1001
2022-11-18T22:30:00.174Z,1001
2022-11-18T22:35:00.281Z,1001
2022-11-18T22:40:00.200Z,1001
2022-11-18T22:45:00.258Z,1001
2022-11-18T22:50:00.169Z,1001
2022-11-18T22:55:00.237Z,1001
2022-11-18T23:00:00.394Z,1001
2022-11-18T23:05:00.158Z,1001
2022-11-18T23:10:00.222Z,1001
2022-11-18T23:15:00.292Z,1001
2022-11-18T23:20:00.287Z,1001
2022-11-18T23:25:00.267Z,1001
2022-11-18T23:30:00.186Z,1001
2022-11-18T23:35:00.246Z,1001
2022-11-18T23:40:00.228Z,1001
2022-11-18T23:45:05.103Z,1001
2022-11-18T23:50:00.261Z,1001
2022-11-18T23:55:00.520Z,1001
